Blackfish, Arkansas
Current Conditions -  °F | °C
As of 12:53 PM on Monday 20 Oct 2014 (Local Time) from KAWM Reporting Station
Broken Clouds Broken Clouds  
Wind Chill: 69°   Ceiling: 8000
Heat Index: 69°   Visibility: 10mi
Dew Point: 51°   Wind: 7mph
Humidity: 53%   Direction: 250°WSW
Pressure: 30.06"   Gusts: NA
Location:  35.0663°N, 90.4665°W
Report Text: KAWM 201753Z AUTO 25006KT 10SM FEW060 BKN080 21/11 A3006 RMK AO2 SLP177 T02060106 10206 20061 58017
Loading
Personal Weather Stations






























Interactive Weather Map
Tropical Storm Tracking
New forecast layout! Learn more

10-Day Weather Forecast

Advertisements
Track Severe Weather on mobile